createdAt,value
2018-07-27T01:15:28.773Z,15.80
2018-07-27T01:18:09.757Z,15.70
2018-07-27T01:20:47.342Z,15.70
2018-07-27T01:23:19.469Z,15.70
2018-07-27T01:26:01.793Z,15.70
2018-07-27T01:28:35.350Z,15.70
2018-07-27T01:31:13.866Z,15.70
2018-07-27T01:33:48.342Z,15.70
2018-07-27T01:36:26.055Z,15.70
2018-07-27T01:39:16.634Z,15.70
2018-07-27T01:41:48.876Z,15.70
2018-07-27T01:44:20.422Z,15.70
2018-07-27T01:46:48.741Z,15.80
2018-07-27T01:49:16.921Z,15.80
2018-07-27T01:51:45.102Z,15.80
2018-07-27T01:54:13.309Z,15.80
2018-07-27T01:56:41.538Z,15.80
2018-07-27T01:59:09.686Z,15.80
2018-07-27T02:01:37.836Z,15.90
2018-07-27T02:04:06.003Z,15.80
2018-07-27T02:06:34.180Z,15.80
2018-07-27T02:09:02.357Z,15.90
2018-07-27T02:11:30.551Z,16.00
2018-07-27T02:13:58.696Z,16.10
2018-07-27T02:16:26.904Z,16.10
2018-07-27T02:18:55.172Z,16.10
2018-07-27T02:21:26.796Z,16.00
2018-07-27T02:23:55.048Z,15.90
2018-07-27T02:26:23.278Z,15.90
2018-07-27T02:28:51.496Z,15.80
2018-07-27T02:31:19.752Z,15.80
2018-07-27T02:33:48.046Z,15.70
2018-07-27T02:36:16.193Z,15.70
2018-07-27T02:38:44.393Z,15.60
2018-07-27T02:41:12.583Z,15.60
2018-07-27T02:43:40.809Z,15.50
2018-07-27T02:46:09.032Z,15.40
2018-07-27T02:48:37.293Z,15.30
2018-07-27T02:51:05.528Z,15.30
2018-07-27T02:53:33.772Z,15.20
2018-07-27T02:56:01.961Z,15.20
2018-07-27T02:58:30.190Z,15.10
2018-07-27T03:00:58.424Z,15.10
2018-07-27T03:03:27.151Z,15.10
2018-07-27T03:05:55.718Z,15.10
2018-07-27T03:08:23.901Z,15.10
2018-07-27T03:10:55.661Z,15.10
2018-07-27T03:13:23.906Z,15.10
2018-07-27T03:15:52.093Z,15.00
2018-07-27T03:18:20.502Z,15.00
2018-07-27T03:20:48.722Z,14.90
2018-07-27T03:23:16.998Z,14.80
2018-07-27T03:25:45.224Z,14.70
2018-07-27T03:28:13.481Z,14.70
2018-07-27T03:30:41.672Z,14.70
2018-07-27T03:33:09.883Z,14.70
2018-07-27T03:35:38.176Z,14.60
2018-07-27T03:38:06.455Z,14.60
2018-07-27T03:40:34.661Z,14.60
2018-07-27T03:43:02.877Z,14.60
2018-07-27T03:45:31.125Z,14.60
2018-07-27T03:47:59.333Z,14.70
2018-07-27T03:50:27.517Z,14.70
2018-07-27T03:52:55.698Z,14.70
2018-07-27T03:55:23.890Z,14.70
2018-07-27T03:57:52.083Z,14.70
2018-07-27T04:00:20.294Z,14.60
2018-07-27T04:02:48.512Z,14.70
2018-07-27T04:05:16.738Z,14.70
2018-07-27T04:07:44.994Z,14.70
2018-07-27T04:10:13.268Z,14.80
2018-07-27T04:12:41.530Z,14.70
2018-07-27T04:15:09.773Z,14.80
2018-07-27T04:17:37.962Z,14.90
2018-07-27T04:20:06.180Z,15.00
2018-07-27T04:22:34.498Z,15.20
2018-07-27T04:25:02.577Z,15.30
2018-07-27T04:27:30.762Z,15.50
2018-07-27T04:29:58.960Z,15.70
2018-07-27T04:32:27.157Z,15.90
2018-07-27T04:34:55.378Z,16.10
2018-07-27T04:37:23.595Z,16.30
2018-07-27T04:39:51.838Z,16.50
2018-07-27T04:42:20.105Z,16.60
2018-07-27T04:44:48.329Z,16.80
2018-07-27T04:47:16.545Z,17.00
2018-07-27T04:49:44.832Z,17.20
2018-07-27T04:52:13.072Z,17.40
2018-07-27T04:54:41.324Z,17.60
2018-07-27T04:57:09.544Z,17.70
2018-07-27T04:59:37.796Z,17.80
2018-07-27T05:02:06.377Z,17.90
2018-07-27T05:04:34.653Z,18.00
2018-07-27T05:07:02.893Z,18.10
2018-07-27T05:09:31.177Z,18.30
2018-07-27T05:11:59.394Z,18.50
2018-07-27T05:14:27.605Z,18.70
2018-07-27T05:16:55.785Z,18.90
2018-07-27T05:19:23.981Z,19.10
2018-07-27T05:21:52.150Z,19.20
2018-07-27T05:24:20.371Z,19.50
2018-07-27T05:26:48.576Z,19.70
2018-07-27T05:29:16.804Z,19.90
2018-07-27T05:31:45.013Z,20.10
2018-07-27T05:34:13.243Z,20.30
2018-07-27T05:36:41.449Z,20.60
2018-07-27T05:39:11.009Z,20.80
2018-07-27T05:41:39.205Z,21.00
2018-07-27T05:44:07.769Z,21.30
2018-07-27T05:46:35.989Z,21.30
2018-07-27T05:49:04.248Z,21.50
2018-07-27T05:51:32.453Z,21.70
2018-07-27T05:54:00.662Z,21.90
2018-07-27T05:56:41.449Z,22.20
2018-07-27T05:59:15.289Z,22.30
2018-07-27T06:01:46.827Z,22.60
2018-07-27T06:04:25.476Z,22.90
2018-07-27T06:07:08.195Z,23.10
2018-07-27T06:12:50.021Z,23.50
2018-07-27T06:15:18.477Z,23.70
2018-07-27T06:17:56.631Z,24.00
2018-07-27T06:20:34.597Z,24.20
2018-07-27T06:23:02.769Z,24.50
2018-07-27T06:25:38.773Z,24.60
2018-07-27T06:28:17.678Z,24.90
2018-07-27T06:30:45.913Z,25.00
2018-07-27T06:36:07.093Z,25.30
2018-07-27T06:38:35.221Z,25.20
2018-07-27T06:41:03.341Z,25.20
2018-07-27T06:43:31.564Z,25.30
2018-07-27T06:45:59.762Z,25.20
2018-07-27T06:48:28.073Z,25.20
2018-07-27T06:50:56.206Z,25.30
2018-07-27T06:53:24.377Z,25.40
2018-07-27T06:55:52.664Z,25.60
2018-07-27T06:58:20.792Z,25.70
2018-07-27T07:00:48.909Z,25.50
2018-07-27T07:03:17.203Z,25.20
2018-07-27T07:05:45.419Z,25.20
2018-07-27T07:08:13.574Z,25.50
2018-07-27T07:10:41.711Z,25.80
2018-07-27T07:13:09.857Z,25.80
2018-07-27T07:15:38.048Z,25.90
2018-07-27T07:18:06.182Z,26.10
2018-07-27T07:20:34.567Z,26.30
2018-07-27T07:23:02.802Z,26.50
2018-07-27T07:25:31.042Z,26.70
2018-07-27T07:30:27.453Z,26.60
2018-07-27T07:32:55.659Z,26.20
2018-07-27T07:35:23.839Z,25.80
2018-07-27T07:37:52.027Z,25.40
2018-07-27T07:40:20.172Z,25.30
2018-07-27T07:42:48.503Z,25.20
2018-07-27T07:45:16.638Z,25.10
2018-07-27T07:47:44.929Z,25.20
2018-07-27T07:50:13.346Z,25.40
2018-07-27T07:52:41.582Z,25.50
2018-07-27T07:55:09.747Z,25.50
2018-07-27T07:57:38.083Z,25.40
2018-07-27T08:00:07.452Z,25.20
2018-07-27T08:05:03.615Z,25.40
2018-07-27T08:07:31.863Z,25.40
2018-07-27T08:10:00.086Z,25.30
2018-07-27T08:12:28.296Z,25.60
2018-07-27T08:14:56.513Z,26.30
2018-07-27T08:17:24.862Z,27.00
2018-07-27T08:19:52.907Z,27.70
2018-07-27T08:22:21.029Z,28.10
2018-07-27T08:24:49.140Z,28.30
2018-07-27T08:27:17.262Z,28.20
2018-07-27T08:29:45.935Z,28.10
2018-07-27T08:32:14.428Z,28.00
2018-07-27T08:34:42.765Z,28.10
2018-07-27T08:37:11.550Z,28.10
2018-07-27T08:39:41.904Z,28.20
2018-07-27T08:42:09.996Z,28.50
2018-07-27T08:44:39.289Z,28.60
2018-07-27T08:47:07.563Z,28.60
2018-07-27T08:49:35.762Z,28.40
2018-07-27T08:52:04.027Z,28.60
2018-07-27T08:54:32.126Z,28.70
2018-07-27T08:57:00.269Z,28.70
2018-07-27T08:59:28.365Z,28.80
2018-07-27T09:01:56.463Z,28.90
2018-07-27T09:04:24.607Z,28.90
2018-07-27T09:06:52.746Z,29.10
2018-07-27T09:11:48.773Z,29.30
2018-07-27T09:14:29.762Z,29.70
2018-07-27T09:16:59.525Z,30.00
2018-07-27T09:19:27.621Z,30.10
2018-07-27T09:21:55.726Z,29.90
2018-07-27T09:24:24.022Z,29.70
2018-07-27T09:26:52.048Z,29.70
2018-07-27T09:29:20.243Z,29.70
2018-07-27T09:31:48.473Z,29.60
2018-07-27T09:34:16.668Z,29.10
2018-07-27T09:36:44.737Z,28.60
2018-07-27T09:39:12.873Z,28.30
2018-07-27T09:41:41.017Z,27.80
2018-07-27T09:44:09.151Z,27.60
2018-07-27T09:46:37.455Z,27.90
2018-07-27T09:49:05.538Z,28.60
2018-07-27T09:51:33.713Z,29.40
2018-07-27T09:54:01.778Z,30.20
2018-07-27T09:56:30.148Z,30.70
2018-07-27T09:58:58.266Z,30.70
2018-07-27T10:01:28.033Z,30.90
2018-07-27T10:03:56.451Z,31.10
2018-07-27T10:06:24.585Z,30.90
2018-07-27T10:08:52.784Z,31.20
2018-07-27T10:11:21.358Z,31.40
2018-07-27T10:13:49.526Z,31.20
2018-07-27T10:16:17.744Z,31.40
2018-07-27T10:18:45.946Z,31.20
2018-07-27T10:21:14.083Z,31.60
2018-07-27T10:23:42.515Z,31.80
2018-07-27T10:26:10.658Z,31.70
2018-07-27T10:28:38.792Z,32.00
2018-07-27T10:31:07.069Z,32.00
2018-07-27T10:33:35.189Z,32.30
2018-07-27T10:36:03.382Z,32.50
2018-07-27T10:38:31.600Z,32.70
2018-07-27T10:40:59.761Z,32.80
2018-07-27T10:45:56.074Z,31.80
2018-07-27T10:48:24.707Z,31.20
2018-07-27T10:50:52.901Z,30.40
2018-07-27T10:53:21.112Z,29.90
2018-07-27T10:55:49.320Z,29.80
2018-07-27T10:58:17.614Z,29.80
2018-07-27T11:00:45.772Z,29.80
2018-07-27T11:03:13.960Z,30.20
2018-07-27T11:05:42.156Z,30.50
2018-07-27T11:08:10.390Z,30.30
2018-07-27T11:10:38.529Z,29.90
2018-07-27T11:13:06.740Z,29.30
2018-07-27T11:15:34.846Z,29.10
2018-07-27T11:18:02.963Z,29.10
2018-07-27T11:20:31.209Z,29.10
2018-07-27T11:22:59.653Z,28.90
2018-07-27T11:25:27.799Z,28.70
2018-07-27T11:27:55.965Z,28.50
2018-07-27T11:30:24.075Z,28.60
2018-07-27T11:32:52.178Z,28.60
2018-07-27T11:35:20.293Z,28.80
2018-07-27T11:37:48.421Z,28.80
2018-07-27T11:46:16.640Z,29.10
2018-07-27T11:48:44.800Z,29.20
2018-07-27T11:51:12.945Z,29.10
2018-07-27T11:53:41.081Z,29.00
2018-07-27T11:56:09.459Z,29.10
2018-07-27T11:58:37.594Z,29.40
2018-07-27T12:01:05.803Z,29.80
2018-07-27T12:03:33.946Z,30.00
2018-07-27T12:06:02.117Z,30.40
2018-07-27T12:08:30.282Z,30.60
2018-07-27T12:10:58.456Z,30.50
2018-07-27T12:13:26.778Z,30.60
2018-07-27T12:15:54.945Z,30.80
2018-07-27T12:18:23.104Z,30.40
2018-07-27T12:20:51.527Z,30.40
2018-07-27T12:23:19.445Z,30.00
2018-07-27T12:25:47.680Z,29.80
2018-07-27T12:28:15.813Z,29.70
2018-07-27T12:30:43.962Z,29.50
2018-07-27T12:33:12.470Z,29.50
2018-07-27T12:35:40.686Z,29.30
2018-07-27T12:38:08.841Z,29.20
2018-07-27T12:40:37.011Z,29.00
2018-07-27T12:43:05.208Z,28.90
2018-07-27T12:45:33.333Z,28.80
2018-07-27T12:48:01.489Z,28.80
2018-07-27T12:50:29.621Z,29.10
2018-07-27T12:52:57.745Z,29.60
2018-07-27T12:55:25.865Z,30.00
2018-07-27T12:57:53.971Z,30.00
2018-07-27T13:00:22.143Z,30.00
2018-07-27T13:02:50.290Z,30.30
2018-07-27T13:05:18.465Z,30.60
2018-07-27T13:07:46.705Z,30.30
2018-07-27T13:12:42.836Z,29.50
2018-07-27T13:17:39.029Z,30.00
2018-07-27T13:20:07.505Z,30.30
2018-07-27T13:22:35.686Z,30.30
2018-07-27T13:25:03.923Z,30.50
2018-07-27T13:27:32.329Z,30.40
2018-07-27T13:30:00.631Z,30.70
2018-07-27T13:32:28.861Z,31.20
2018-07-27T13:35:00.141Z,31.20
2018-07-27T13:40:00.850Z,30.50
2018-07-27T13:42:30.466Z,29.90
2018-07-27T13:44:58.677Z,29.70
2018-07-27T13:47:26.956Z,29.40
2018-07-27T13:49:55.341Z,29.00
2018-07-27T13:52:23.598Z,28.90
2018-07-27T13:54:53.894Z,28.90
2018-07-27T13:57:22.037Z,28.70
2018-07-27T13:59:51.346Z,28.70
2018-07-27T14:02:19.504Z,28.70
2018-07-27T14:04:48.721Z,28.80
2018-07-27T14:07:22.663Z,28.80
2018-07-27T14:09:50.973Z,29.00
2018-07-27T14:12:20.193Z,29.00
2018-07-27T14:14:48.358Z,28.90
2018-07-27T14:17:18.517Z,28.90
2018-07-27T14:19:50.173Z,29.00
2018-07-27T14:22:19.365Z,29.20
2018-07-27T14:24:47.618Z,29.50
2018-07-27T14:27:15.838Z,29.70
2018-07-27T14:29:44.759Z,30.10
2018-07-27T14:32:13.011Z,30.10
2018-07-27T14:34:41.172Z,29.90
2018-07-27T14:37:09.581Z,29.50
2018-07-27T14:39:37.847Z,29.20
2018-07-27T14:42:06.096Z,28.80
2018-07-27T14:44:34.279Z,28.60
2018-07-27T14:47:03.339Z,28.20
2018-07-27T14:49:31.537Z,28.00
2018-07-27T14:52:05.010Z,27.90
2018-07-27T14:57:01.297Z,27.80
2018-07-27T14:59:29.583Z,27.80
2018-07-27T15:01:57.881Z,27.70
2018-07-27T15:04:26.156Z,27.70
2018-07-27T15:06:54.375Z,27.60
2018-07-27T15:11:50.641Z,27.80
2018-07-27T15:14:18.888Z,28.00
2018-07-27T15:16:47.262Z,28.10
2018-07-27T15:19:15.497Z,28.30
2018-07-27T15:21:43.711Z,28.50
2018-07-27T15:24:11.885Z,28.80
2018-07-27T15:26:40.078Z,29.10
2018-07-27T15:29:08.357Z,29.40
2018-07-27T15:31:36.539Z,29.60
2018-07-27T15:34:04.787Z,29.80
2018-07-27T15:36:33.026Z,29.80
2018-07-27T15:39:01.122Z,29.80
2018-07-27T15:41:29.403Z,29.70
2018-07-27T15:43:57.577Z,29.40
2018-07-27T15:46:25.698Z,29.10
2018-07-27T15:48:53.838Z,28.90
2018-07-27T15:51:22.007Z,28.70
2018-07-27T15:53:50.138Z,28.60
2018-07-27T15:56:18.463Z,28.50
2018-07-27T15:58:46.682Z,28.30
2018-07-27T16:01:14.907Z,28.20
2018-07-27T16:03:43.053Z,28.20
2018-07-27T16:06:11.230Z,28.20
2018-07-27T16:08:39.389Z,28.20
2018-07-27T16:11:07.827Z,28.00
2018-07-27T16:13:36.106Z,27.90
2018-07-27T16:16:04.238Z,27.50
2018-07-27T16:18:32.557Z,27.30
2018-07-27T16:21:00.725Z,27.40
2018-07-27T16:23:28.900Z,27.30
2018-07-27T16:28:25.055Z,27.40
2018-07-27T16:30:53.272Z,27.30
2018-07-27T16:33:22.479Z,27.20
2018-07-27T16:35:50.605Z,27.00
2018-07-27T16:38:18.790Z,26.80
2018-07-27T16:40:46.917Z,26.60
2018-07-27T16:43:15.094Z,26.70
2018-07-27T16:45:47.794Z,26.80
2018-07-27T16:48:16.021Z,26.80
2018-07-27T16:50:44.302Z,26.80
2018-07-27T16:53:12.746Z,26.60
2018-07-27T16:55:41.025Z,26.40
2018-07-27T16:58:09.190Z,26.10
2018-07-27T17:00:37.503Z,25.90
2018-07-27T17:03:05.627Z,25.70
2018-07-27T17:05:33.753Z,25.50
2018-07-27T17:08:02.619Z,25.50
2018-07-27T17:10:30.836Z,25.50
2018-07-27T17:12:59.004Z,25.50
2018-07-27T17:15:27.145Z,25.40
2018-07-27T17:17:55.293Z,25.40
2018-07-27T17:20:23.388Z,25.40
2018-07-27T17:22:51.537Z,25.40
2018-07-27T17:25:19.740Z,25.40
2018-07-27T17:27:47.834Z,25.50
2018-07-27T17:30:15.947Z,25.50
2018-07-27T17:32:44.067Z,25.50
2018-07-27T17:35:12.179Z,25.50
2018-07-27T17:37:40.310Z,25.60
2018-07-27T17:40:08.758Z,25.60
2018-07-27T17:42:36.911Z,25.60
2018-07-27T17:45:06.388Z,25.60
2018-07-27T17:47:34.488Z,25.60
2018-07-27T17:50:02.723Z,25.60
2018-07-27T17:52:30.998Z,25.60
2018-07-27T17:54:59.140Z,25.60
2018-07-27T17:59:55.193Z,25.60
2018-07-27T18:02:23.306Z,25.50
2018-07-27T18:04:51.442Z,25.50
2018-07-27T18:07:19.669Z,25.50
2018-07-27T18:09:47.834Z,25.40
2018-07-27T18:12:15.987Z,25.30
2018-07-27T18:14:44.158Z,25.30
2018-07-27T18:17:12.325Z,25.20
2018-07-27T18:19:40.429Z,25.20
2018-07-27T18:22:08.661Z,25.10
2018-07-27T18:24:36.822Z,25.10
2018-07-27T18:27:05.762Z,25.00
2018-07-27T18:29:33.962Z,25.00
2018-07-27T18:32:02.118Z,25.00
2018-07-27T18:34:35.850Z,25.00
2018-07-27T18:39:31.996Z,25.00
2018-07-27T18:42:00.057Z,24.90
2018-07-27T18:46:56.094Z,24.80
2018-07-27T18:49:24.241Z,24.70
2018-07-27T18:51:52.406Z,24.60
2018-07-27T18:54:20.575Z,24.50
2018-07-27T18:56:48.822Z,24.30
2018-07-27T18:59:16.957Z,24.20
2018-07-27T19:01:45.156Z,24.10
2018-07-27T19:04:13.300Z,24.00
2018-07-27T19:06:41.484Z,23.90
2018-07-27T19:09:11.540Z,23.80
2018-07-27T19:11:39.663Z,23.60
2018-07-27T19:14:07.869Z,23.60
2018-07-27T19:16:35.982Z,23.50
2018-07-27T19:19:04.121Z,23.40
2018-07-27T19:21:32.259Z,23.40
2018-07-27T19:24:00.433Z,23.40
2018-07-27T19:26:28.562Z,23.40
2018-07-27T19:28:56.733Z,23.50
2018-07-27T19:31:24.904Z,23.50
2018-07-27T19:33:53.073Z,23.50
2018-07-27T19:36:21.466Z,23.40
2018-07-27T19:38:49.657Z,23.40
2018-07-27T19:41:17.890Z,23.30
2018-07-27T19:46:13.964Z,23.30
2018-07-27T19:48:42.113Z,23.20
2018-07-27T19:51:10.255Z,23.20
2018-07-27T19:53:39.840Z,23.20
2018-07-27T19:56:08.064Z,23.20
2018-07-27T19:58:36.216Z,23.10
2018-07-27T20:01:04.555Z,23.10
2018-07-27T20:03:32.933Z,23.00
2018-07-27T20:06:01.087Z,23.00
2018-07-27T20:08:29.733Z,22.90
2018-07-27T20:10:57.891Z,22.90
2018-07-27T20:13:26.183Z,22.80
2018-07-27T20:15:54.385Z,22.80
2018-07-27T20:18:22.566Z,22.70
2018-07-27T20:20:51.290Z,22.70
2018-07-27T20:23:19.563Z,22.60
2018-07-27T20:25:47.782Z,22.50
2018-07-27T20:28:16.057Z,22.50
2018-07-27T20:30:44.449Z,22.50
2018-07-27T20:33:12.649Z,22.50
2018-07-27T20:35:41.011Z,22.50
2018-07-27T20:38:09.738Z,22.50
2018-07-27T20:40:38.877Z,22.40
2018-07-27T20:43:07.117Z,22.40
2018-07-27T20:45:35.583Z,22.40
2018-07-27T20:48:03.933Z,22.40
2018-07-27T20:50:32.196Z,22.30
2018-07-27T20:53:00.349Z,22.30
2018-07-27T20:55:28.623Z,22.20
2018-07-27T20:57:56.763Z,22.30
2018-07-27T21:00:24.930Z,22.20
2018-07-27T21:02:53.163Z,22.10
2018-07-27T21:05:21.447Z,22.10
2018-07-27T21:07:49.589Z,22.00
2018-07-27T21:10:17.790Z,22.00
2018-07-27T21:12:46.038Z,22.00
2018-07-27T21:15:14.253Z,21.90
2018-07-27T21:17:42.586Z,21.80
2018-07-27T21:20:10.806Z,21.90
2018-07-27T21:22:39.201Z,21.80
2018-07-27T21:25:07.469Z,21.80
2018-07-27T21:27:35.613Z,21.90
2018-07-27T21:30:03.897Z,21.90
2018-07-27T21:32:32.050Z,22.00
2018-07-27T21:35:00.213Z,21.90
2018-07-27T21:37:28.415Z,22.00
2018-07-27T21:39:56.548Z,22.00
2018-07-27T21:42:24.714Z,21.90
2018-07-27T21:44:52.854Z,22.00
2018-07-27T21:47:21.048Z,22.00
2018-07-27T21:49:49.289Z,22.00
2018-07-27T21:52:17.591Z,21.90
2018-07-27T21:54:45.810Z,21.90
2018-07-27T21:57:14.792Z,21.80
2018-07-27T21:59:43.189Z,21.80
2018-07-27T22:02:11.349Z,21.70
2018-07-27T22:04:39.494Z,21.70
2018-07-27T22:07:07.645Z,21.60
2018-07-27T22:09:35.825Z,21.60
2018-07-27T22:12:04.274Z,21.50
2018-07-27T22:14:32.544Z,21.50
2018-07-27T22:17:00.759Z,21.50
2018-07-27T22:19:28.889Z,21.50
2018-07-27T22:21:57.046Z,21.60
2018-07-27T22:24:25.193Z,21.60
2018-07-27T22:26:53.352Z,21.60
2018-07-27T22:29:21.502Z,21.60
2018-07-27T22:31:49.653Z,21.60
2018-07-27T22:34:17.789Z,21.50
2018-07-27T22:36:46.061Z,21.50
2018-07-27T22:39:14.178Z,21.50
2018-07-27T22:41:42.325Z,21.50
2018-07-27T22:44:10.463Z,21.50
2018-07-27T22:46:38.601Z,21.50
2018-07-27T22:49:06.738Z,21.60
2018-07-27T22:51:34.878Z,21.60
2018-07-27T22:54:03.013Z,21.60
2018-07-27T22:56:31.161Z,21.50
2018-07-27T22:58:59.294Z,21.50
2018-07-27T23:01:27.429Z,21.40
2018-07-27T23:03:55.641Z,21.40
2018-07-27T23:06:23.736Z,21.40
2018-07-27T23:08:51.893Z,21.40
2018-07-27T23:11:21.055Z,21.50
2018-07-27T23:13:49.196Z,21.40
2018-07-27T23:16:17.333Z,21.30
2018-07-27T23:18:45.487Z,21.30
2018-07-27T23:21:13.663Z,21.30
2018-07-27T23:23:42.968Z,21.20
2018-07-27T23:26:11.105Z,21.20
2018-07-27T23:28:39.246Z,21.30
2018-07-27T23:31:08.409Z,21.30
2018-07-27T23:33:36.925Z,21.30
2018-07-27T23:36:06.092Z,21.30
2018-07-27T23:38:34.242Z,21.20
2018-07-27T23:41:02.376Z,21.20
2018-07-27T23:43:30.561Z,21.10
2018-07-27T23:45:58.700Z,21.10
2018-07-27T23:48:26.992Z,20.90
2018-07-27T23:50:55.125Z,20.90
2018-07-27T23:53:23.274Z,21.00
2018-07-27T23:55:51.440Z,21.10
2018-07-27T23:58:19.690Z,21.10
